createdAt,value
2022-09-13T00:01:11.358Z,5.07
2022-09-13T00:03:38.319Z,5.23
2022-09-13T00:06:19.014Z,5.20
2022-09-13T00:08:47.267Z,4.88
2022-09-13T00:11:24.172Z,5.55
2022-09-13T00:13:52.324Z,4.28
2022-09-13T00:16:24.999Z,5.50
2022-09-13T00:18:54.226Z,5.55
2022-09-13T00:21:24.154Z,5.30
2022-09-13T00:23:54.785Z,4.97
2022-09-13T00:26:29.005Z,4.93
2022-09-13T00:28:59.582Z,5.18
2022-09-13T00:31:29.292Z,4.80
2022-09-13T00:34:00.321Z,5.28
2022-09-13T00:36:28.199Z,5.00
2022-09-13T00:38:55.195Z,4.68
2022-09-13T00:41:23.010Z,5.55
2022-09-13T00:44:00.918Z,5.30
2022-09-13T00:46:49.195Z,5.47
2022-09-13T00:49:39.775Z,5.57
2022-09-13T00:52:20.725Z,5.40
2022-09-13T00:55:03.210Z,5.72
2022-09-13T00:57:36.566Z,5.95
2022-09-13T01:00:17.823Z,5.70
2022-09-13T01:03:00.072Z,5.60
2022-09-13T01:05:41.376Z,5.38
2022-09-13T01:08:16.082Z,5.97
2022-09-13T01:10:45.372Z,5.45
2022-09-13T01:13:25.088Z,5.38
2022-09-13T01:15:52.995Z,5.10
2022-09-13T01:18:21.035Z,6.03
2022-09-13T01:24:25.379Z,4.97
2022-09-13T01:27:48.958Z,5.22
2022-09-13T01:30:23.742Z,5.03
2022-09-13T01:33:16.151Z,4.95
2022-09-13T01:36:44.877Z,5.93
2022-09-13T01:39:32.720Z,5.38
2022-09-13T01:42:48.592Z,5.22
2022-09-13T01:45:54.337Z,4.55
2022-09-13T01:49:14.704Z,4.70
2022-09-13T01:52:22.675Z,4.50
2022-09-13T01:55:30.726Z,4.82
2022-09-13T01:58:34.695Z,5.63
2022-09-13T02:01:39.303Z,5.47
2022-09-13T02:04:27.937Z,4.68
2022-09-13T02:07:42.219Z,5.22
2022-09-13T02:10:33.652Z,5.00
2022-09-13T02:13:13.287Z,5.18
2022-09-13T02:15:51.990Z,5.05
2022-09-13T02:21:26.939Z,5.43
2022-09-13T02:24:16.225Z,5.05
2022-09-13T02:26:50.896Z,5.43
2022-09-13T02:29:25.061Z,5.20
2022-09-13T02:32:21.755Z,5.88
2022-09-13T02:35:10.951Z,5.28
2022-09-13T02:37:45.521Z,5.15
2022-09-13T02:40:26.159Z,5.00
2022-09-13T02:43:49.854Z,5.18
2022-09-13T02:47:12.676Z,5.20
2022-09-13T02:50:10.293Z,5.10
2022-09-13T02:52:59.235Z,5.60
2022-09-13T02:56:04.968Z,5.70
2022-09-13T02:59:12.184Z,5.35
2022-09-13T03:01:58.560Z,5.65
2022-09-13T03:04:28.626Z,5.97
2022-09-13T03:06:56.004Z,5.82
2022-09-13T03:09:24.205Z,5.10
2022-09-13T03:12:34.567Z,5.35
2022-09-13T03:15:37.565Z,5.53
2022-09-13T03:19:00.292Z,5.95
2022-09-13T03:22:35.193Z,6.28
2022-09-13T03:25:19.852Z,5.63
2022-09-13T03:28:24.161Z,5.63
2022-09-13T03:31:07.664Z,6.05
2022-09-13T03:34:08.897Z,5.35
2022-09-13T03:37:17.534Z,5.65
2022-09-13T03:40:07.297Z,5.72
2022-09-13T03:43:25.705Z,6.20
2022-09-13T03:46:03.873Z,6.20
2022-09-13T03:48:37.956Z,5.70
2022-09-13T03:51:07.220Z,6.57
2022-09-13T03:53:46.253Z,5.68
2022-09-13T03:56:22.117Z,6.22
2022-09-13T03:58:49.824Z,5.75
2022-09-13T04:01:22.769Z,6.43
2022-09-13T04:03:55.829Z,6.65
2022-09-13T04:06:23.899Z,6.40
2022-09-13T04:08:50.922Z,6.82
2022-09-13T04:11:18.055Z,5.70
2022-09-13T04:13:45.029Z,6.07
2022-09-13T04:16:12.096Z,7.13
2022-09-13T04:18:39.145Z,6.60
2022-09-13T04:21:06.271Z,6.95
2022-09-13T04:23:33.276Z,6.90
2022-09-13T04:26:06.577Z,7.30
2022-09-13T04:28:33.650Z,7.60
2022-09-13T04:31:00.640Z,6.47
2022-09-13T04:33:27.565Z,7.90
2022-09-13T04:35:59.518Z,7.47
2022-09-13T04:38:27.850Z,7.50
2022-09-13T04:40:56.291Z,8.32
2022-09-13T04:43:24.769Z,7.55
2022-09-13T04:45:52.158Z,7.80
2022-09-13T04:48:19.250Z,8.07
2022-09-13T04:50:47.642Z,7.53
2022-09-13T04:53:14.718Z,7.40
2022-09-13T04:55:41.714Z,7.83
2022-09-13T04:58:09.167Z,7.38
2022-09-13T05:00:36.370Z,7.18
2022-09-13T05:03:03.368Z,7.63
2022-09-13T05:05:32.376Z,9.00
2022-09-13T05:07:59.460Z,8.73
2022-09-13T05:10:26.477Z,8.93
2022-09-13T05:12:53.529Z,8.55
2022-09-13T05:15:20.474Z,9.00
2022-09-13T05:17:47.389Z,9.65
2022-09-13T05:20:14.328Z,9.75
2022-09-13T05:22:41.300Z,9.98
2022-09-13T05:25:09.081Z,9.05
2022-09-13T05:27:36.006Z,9.05
2022-09-13T05:30:03.465Z,9.18
2022-09-13T05:32:32.371Z,9.80
2022-09-13T05:34:59.324Z,9.98
2022-09-13T05:37:26.311Z,9.65
2022-09-13T05:40:11.538Z,8.70
2022-09-13T05:42:39.392Z,9.57
2022-09-13T05:45:07.676Z,9.05
2022-09-13T05:47:34.613Z,8.45
2022-09-13T05:50:10.403Z,8.95
2022-09-13T05:52:38.915Z,9.85
2022-09-13T05:55:06.065Z,9.23
2022-09-13T05:57:33.003Z,8.50
2022-09-13T05:59:59.982Z,8.85
2022-09-13T06:02:26.957Z,9.10
2022-09-13T06:04:53.942Z,9.02
2022-09-13T06:07:20.891Z,10.27
2022-09-13T06:09:48.146Z,10.15
2022-09-13T06:12:16.991Z,10.32
2022-09-13T06:14:44.019Z,9.98
2022-09-13T06:17:11.005Z,9.85
2022-09-13T06:19:37.962Z,10.50
2022-09-13T06:22:04.930Z,10.73
2022-09-13T06:24:32.190Z,10.63
2022-09-13T06:26:59.095Z,10.50
2022-09-13T06:29:26.004Z,10.98
2022-09-13T06:31:52.943Z,10.75
2022-09-13T06:34:19.937Z,11.50
2022-09-13T06:36:46.889Z,11.57
2022-09-13T06:39:13.916Z,10.50
2022-09-13T06:41:41.058Z,11.35
2022-09-13T06:44:09.212Z,12.18
2022-09-13T06:46:37.037Z,11.00
2022-09-13T06:49:09.036Z,11.80
2022-09-13T06:51:37.065Z,12.63
2022-09-13T06:56:38.728Z,11.82
2022-09-13T06:59:10.505Z,11.90
2022-09-13T07:01:44.203Z,11.93
2022-09-13T07:04:17.393Z,11.63
2022-09-13T07:06:49.220Z,11.52
2022-09-13T07:09:21.770Z,12.70
2022-09-13T07:11:53.911Z,12.32
2022-09-13T07:14:27.281Z,11.38
2022-09-13T07:16:55.798Z,11.50
2022-09-13T07:19:28.434Z,11.57
2022-09-13T07:21:57.858Z,11.43
2022-09-13T07:24:25.587Z,11.88
2022-09-13T07:26:53.439Z,11.35
2022-09-13T07:29:24.011Z,12.25
2022-09-13T07:31:55.223Z,12.63
2022-09-13T07:34:26.351Z,12.40
2022-09-13T07:36:54.672Z,12.15
2022-09-13T07:39:23.148Z,13.00
2022-09-13T07:41:53.813Z,12.82
2022-09-13T07:44:20.980Z,12.20
2022-09-13T07:46:48.147Z,12.48
2022-09-13T07:49:19.979Z,12.07
2022-09-13T07:51:46.997Z,11.63
2022-09-13T07:54:18.550Z,12.63
2022-09-13T07:56:46.564Z,12.90
2022-09-13T08:01:49.811Z,13.20
2022-09-13T08:04:25.822Z,12.40
2022-09-13T08:06:53.076Z,12.00
2022-09-13T08:09:20.196Z,11.15
2022-09-13T08:11:53.213Z,12.47
2022-09-13T08:14:24.248Z,12.70
2022-09-13T08:16:56.925Z,12.43
2022-09-13T08:19:23.892Z,12.23
2022-09-13T08:21:50.866Z,12.48
2022-09-13T08:24:21.874Z,12.80
2022-09-13T08:26:49.367Z,12.52
2022-09-13T08:29:17.270Z,12.57
2022-09-13T08:34:15.916Z,12.30
2022-09-13T08:36:44.579Z,12.27
2022-09-13T08:39:16.018Z,12.18
2022-09-13T08:41:45.210Z,12.60
2022-09-13T08:44:45.003Z,12.50
2022-09-13T08:48:07.170Z,10.93
2022-09-13T08:50:38.600Z,12.70
2022-09-13T08:53:29.936Z,11.93
2022-09-13T08:56:12.964Z,11.85
2022-09-13T08:59:20.310Z,11.93
2022-09-13T09:02:50.258Z,11.88
2022-09-13T09:05:29.191Z,12.38
2022-09-13T09:08:21.346Z,11.38
2022-09-13T09:10:56.997Z,11.43
2022-09-13T09:13:37.703Z,11.93
2022-09-13T09:16:48.353Z,10.75
2022-09-13T09:22:22.058Z,10.50
2022-09-13T09:24:56.708Z,10.60
2022-09-13T09:27:24.240Z,10.45
2022-09-13T09:29:59.650Z,10.18
2022-09-13T09:33:13.756Z,10.43
2022-09-13T09:36:18.072Z,10.48
2022-09-13T09:38:45.102Z,9.75
2022-09-13T09:41:22.787Z,8.80
2022-09-13T09:44:20.276Z,9.33
2022-09-13T09:47:29.530Z,9.90
2022-09-13T09:50:18.036Z,8.85
2022-09-13T09:53:30.006Z,9.37
2022-09-13T09:56:21.340Z,9.93
2022-09-13T09:58:48.779Z,9.25
2022-09-13T10:01:37.365Z,10.80
2022-09-13T10:04:10.469Z,10.23
2022-09-13T10:06:43.925Z,9.27
2022-09-13T10:09:13.458Z,9.57
2022-09-13T10:12:00.081Z,9.55
2022-09-13T10:14:44.540Z,9.10
2022-09-13T10:17:29.820Z,9.38
2022-09-13T10:20:24.996Z,9.45
2022-09-13T10:23:15.392Z,8.73
2022-09-13T10:26:14.187Z,9.95
2022-09-13T10:29:07.389Z,9.30
2022-09-13T10:31:45.296Z,8.77
2022-09-13T10:34:33.136Z,8.40
2022-09-13T10:37:33.755Z,7.90
2022-09-13T10:40:33.659Z,8.07
2022-09-13T10:43:19.489Z,7.90
2022-09-13T10:45:51.742Z,8.32
2022-09-13T10:48:21.522Z,8.07
2022-09-13T10:51:21.530Z,8.35
2022-09-13T10:53:49.096Z,8.38
2022-09-13T10:56:26.729Z,8.70
2022-09-13T10:59:24.279Z,8.45
2022-09-13T11:03:05.008Z,8.40
2022-09-13T11:06:00.208Z,8.65
2022-09-13T11:08:51.305Z,8.60
2022-09-13T11:11:52.490Z,8.38
2022-09-13T11:14:51.152Z,7.88
2022-09-13T11:18:13.398Z,8.43
2022-09-13T11:21:12.247Z,8.05
2022-09-13T11:24:12.485Z,9.43
2022-09-13T11:27:04.932Z,9.18
2022-09-13T11:30:29.700Z,9.07
2022-09-13T11:33:18.289Z,9.00
2022-09-13T11:36:26.625Z,8.75
2022-09-13T11:39:43.177Z,9.35
2022-09-13T11:42:51.194Z,8.55
2022-09-13T11:45:34.612Z,9.13
2022-09-13T11:49:12.038Z,9.13
2022-09-13T11:52:26.528Z,9.75
2022-09-13T11:55:28.112Z,9.98
2022-09-13T11:58:13.523Z,11.75
2022-09-13T12:01:02.685Z,9.98
2022-09-13T12:06:59.892Z,10.45
2022-09-13T12:09:59.454Z,10.45
2022-09-13T12:12:36.701Z,10.57
2022-09-13T12:15:37.114Z,11.38
2022-09-13T12:18:53.557Z,10.27
2022-09-13T12:21:37.556Z,10.05
2022-09-13T12:24:28.447Z,10.18
2022-09-13T12:27:22.028Z,9.32
2022-09-13T12:30:16.326Z,8.68
2022-09-13T12:32:48.032Z,9.45
2022-09-13T12:35:35.225Z,10.07
2022-09-13T12:38:17.330Z,9.82
2022-09-13T12:41:35.553Z,9.52
2022-09-13T12:44:33.805Z,9.27
2022-09-13T12:47:41.491Z,9.52
2022-09-13T12:50:44.372Z,9.82
2022-09-13T12:53:57.328Z,9.68
2022-09-13T12:57:00.230Z,9.18
2022-09-13T13:00:30.339Z,9.35
2022-09-13T13:03:12.017Z,8.85
2022-09-13T13:05:57.653Z,9.55
2022-09-13T13:08:31.216Z,10.35
2022-09-13T13:11:14.662Z,9.43
2022-09-13T13:14:02.450Z,10.25
2022-09-13T13:16:31.782Z,9.95
2022-09-13T13:19:29.668Z,8.85
2022-09-13T13:22:35.198Z,9.52
2022-09-13T13:25:39.233Z,9.80
2022-09-13T13:28:43.331Z,10.98
2022-09-13T13:31:30.827Z,11.98
2022-09-13T13:34:08.460Z,10.10
2022-09-13T13:36:41.293Z,10.63
2022-09-13T13:39:25.410Z,12.10
2022-09-13T13:42:03.282Z,12.13
2022-09-13T13:44:30.123Z,11.32
2022-09-13T13:47:09.254Z,12.77
2022-09-13T13:49:39.216Z,11.10
2022-09-13T13:52:09.245Z,11.27
2022-09-13T13:54:42.320Z,11.65
2022-09-13T13:57:31.062Z,11.40
2022-09-13T14:00:23.537Z,10.82
2022-09-13T14:02:50.334Z,11.70
2022-09-13T14:05:54.539Z,11.50
2022-09-13T14:08:50.255Z,11.40
2022-09-13T14:12:08.899Z,11.55
2022-09-13T14:15:27.777Z,11.45
2022-09-13T14:19:07.540Z,11.65
2022-09-13T14:21:34.959Z,11.38
2022-09-13T14:24:25.146Z,10.60
2022-09-13T14:27:03.977Z,11.45
2022-09-13T14:29:33.558Z,11.00
2022-09-13T14:32:16.203Z,11.20
2022-09-13T14:35:02.953Z,11.38
2022-09-13T14:37:38.313Z,10.80
2022-09-13T14:40:28.517Z,11.82
2022-09-13T14:42:56.604Z,12.43
2022-09-13T14:45:38.269Z,11.65
2022-09-13T14:48:25.723Z,11.20
2022-09-13T14:51:09.468Z,12.60
2022-09-13T14:53:40.707Z,11.23
2022-09-13T14:56:27.286Z,10.25
2022-09-13T14:59:16.112Z,10.55
2022-09-13T15:01:43.198Z,11.10
2022-09-13T15:04:10.521Z,11.93
2022-09-13T15:06:41.288Z,11.20
2022-09-13T15:09:11.238Z,9.52
2022-09-13T15:12:01.437Z,9.02
2022-09-13T15:14:38.148Z,8.18
2022-09-13T15:17:14.911Z,8.30
2022-09-13T15:19:50.482Z,8.02
2022-09-13T15:22:32.039Z,6.88
2022-09-13T15:25:02.618Z,8.18
2022-09-13T15:27:47.419Z,7.50
2022-09-13T15:30:42.111Z,7.05
2022-09-13T15:33:11.667Z,7.18
2022-09-13T15:35:46.812Z,6.75
2022-09-13T15:38:32.440Z,7.20
2022-09-13T15:41:19.482Z,7.03
2022-09-13T15:43:49.213Z,6.50
2022-09-13T15:46:18.540Z,5.88
2022-09-13T15:49:01.550Z,6.40
2022-09-13T15:51:28.739Z,5.00
2022-09-13T15:53:56.614Z,5.32
2022-09-13T15:59:02.101Z,4.80
2022-09-13T16:01:29.257Z,4.90
2022-09-13T16:03:56.268Z,4.65
2022-09-13T16:06:24.844Z,5.03
2022-09-13T16:08:51.864Z,4.90
2022-09-13T16:11:18.790Z,4.17
2022-09-13T16:13:45.784Z,5.00
2022-09-13T16:16:14.891Z,5.00
2022-09-13T16:18:42.096Z,5.15
2022-09-13T16:21:09.367Z,5.00
2022-09-13T16:23:36.684Z,4.97
2022-09-13T16:26:06.335Z,4.93
2022-09-13T16:28:33.411Z,4.97
2022-09-13T16:31:00.501Z,4.88
2022-09-13T16:33:27.475Z,5.38
2022-09-13T16:35:57.956Z,4.30
2022-09-13T16:38:27.187Z,5.18
2022-09-13T16:40:56.906Z,5.10
2022-09-13T16:43:23.931Z,5.00
2022-09-13T16:45:51.556Z,4.25
2022-09-13T16:48:18.526Z,5.18
2022-09-13T16:50:45.675Z,4.50
2022-09-13T16:53:12.637Z,5.13
2022-09-13T16:55:39.657Z,4.93
2022-09-13T16:58:06.887Z,4.43
2022-09-13T17:00:34.222Z,4.53
2022-09-13T17:03:01.325Z,3.92
2022-09-13T17:05:28.768Z,4.55
2022-09-13T17:07:55.797Z,4.50
2022-09-13T17:10:23.075Z,4.87
2022-09-13T17:12:50.383Z,4.70
2022-09-13T17:15:17.548Z,5.40
2022-09-13T17:17:44.501Z,5.30
2022-09-13T17:20:13.716Z,4.77
2022-09-13T17:22:41.243Z,4.57
2022-09-13T17:25:09.444Z,4.63
2022-09-13T17:27:36.893Z,4.78
2022-09-13T17:30:05.670Z,4.40
2022-09-13T17:32:33.050Z,5.47
2022-09-13T17:35:00.042Z,5.22
2022-09-13T17:37:27.243Z,4.47
2022-09-13T17:39:54.229Z,4.68
2022-09-13T17:42:23.534Z,4.85
2022-09-13T17:44:51.083Z,4.40
2022-09-13T17:47:17.999Z,4.43
2022-09-13T17:49:46.719Z,4.43
2022-09-13T17:52:13.825Z,4.10
2022-09-13T17:54:40.758Z,3.80
2022-09-13T17:57:08.184Z,4.30
2022-09-13T17:59:35.118Z,4.13
2022-09-13T18:02:02.150Z,4.23
2022-09-13T18:04:29.539Z,4.55
2022-09-13T18:06:56.651Z,4.50
2022-09-13T18:09:24.839Z,4.85
2022-09-13T18:11:51.944Z,4.75
2022-09-13T18:14:20.262Z,5.32
2022-09-13T18:16:51.983Z,4.28
2022-09-13T18:19:29.863Z,4.10
2022-09-13T18:22:07.901Z,4.35
2022-09-13T18:24:36.055Z,4.25
2022-09-13T18:27:03.812Z,3.95
2022-09-13T18:29:32.892Z,4.43
2022-09-13T18:32:00.053Z,4.13
2022-09-13T18:34:27.792Z,3.95
2022-09-13T18:39:23.516Z,3.75
2022-09-13T18:41:50.785Z,3.30
2022-09-13T18:44:18.744Z,5.15
2022-09-13T18:49:15.179Z,4.45
2022-09-13T18:51:45.434Z,4.65
2022-09-13T18:54:18.011Z,4.25
2022-09-13T18:56:47.350Z,4.57
2022-09-13T18:59:14.738Z,4.65
2022-09-13T19:01:44.365Z,4.50
2022-09-13T19:04:19.758Z,4.93
2022-09-13T19:06:56.073Z,5.97
2022-09-13T19:09:24.454Z,6.55
2022-09-13T19:11:54.754Z,5.18
2022-09-13T19:14:29.095Z,5.53
2022-09-13T19:17:04.651Z,5.85
2022-09-13T19:19:31.990Z,6.70
2022-09-13T19:21:59.070Z,5.32
2022-09-13T19:24:26.360Z,5.82
2022-09-13T19:26:53.766Z,6.03
2022-09-13T19:29:23.474Z,6.57
2022-09-13T19:31:52.987Z,5.97
2022-09-13T19:34:22.921Z,6.53
2022-09-13T19:36:57.556Z,6.85
2022-09-13T19:39:29.521Z,6.07
2022-09-13T19:41:58.255Z,5.88
2022-09-13T19:44:25.469Z,5.50
2022-09-13T19:47:15.019Z,5.68
2022-09-13T19:49:40.387Z,6.38
2022-09-13T19:52:07.709Z,6.43
2022-09-13T19:54:34.678Z,5.20
2022-09-13T19:57:03.444Z,6.03
2022-09-13T19:59:31.610Z,6.75
2022-09-13T20:01:58.571Z,5.85
2022-09-13T20:04:26.087Z,5.82
2022-09-13T20:06:53.139Z,6.63
2022-09-13T20:09:21.650Z,7.37
2022-09-13T20:11:49.248Z,6.47
2022-09-13T20:14:20.460Z,6.60
2022-09-13T20:16:48.752Z,6.65
2022-09-13T20:22:09.792Z,6.03
2022-09-13T20:24:37.350Z,6.93
2022-09-13T20:27:04.623Z,7.03
2022-09-13T20:29:31.829Z,6.25
2022-09-13T20:31:59.973Z,7.50
2022-09-13T20:34:27.978Z,6.60
2022-09-13T20:39:22.073Z,8.00
2022-09-13T20:41:50.113Z,7.93
2022-09-13T20:44:17.821Z,9.40
2022-09-13T20:46:45.135Z,9.77
2022-09-13T20:49:12.349Z,10.35
2022-09-13T20:51:39.986Z,11.63
2022-09-13T20:54:08.360Z,11.32
2022-09-13T20:56:35.571Z,11.95
2022-09-13T20:59:04.923Z,12.40
2022-09-13T21:01:33.851Z,11.68
2022-09-13T21:04:02.102Z,12.50
2022-09-13T21:06:37.652Z,12.23
2022-09-13T21:09:04.850Z,12.13
2022-09-13T21:11:36.565Z,11.63
2022-09-13T21:14:08.808Z,10.68
2022-09-13T21:16:41.322Z,10.20
2022-09-13T21:19:09.509Z,9.50
2022-09-13T21:21:41.799Z,11.07
2022-09-13T21:24:13.775Z,11.77
2022-09-13T21:26:42.470Z,11.98
2022-09-13T21:29:11.906Z,12.13
2022-09-13T21:31:40.409Z,11.95
2022-09-13T21:34:15.447Z,13.27
2022-09-13T21:36:46.112Z,13.90
2022-09-13T21:39:16.371Z,13.07
2022-09-13T21:41:44.360Z,13.07
2022-09-13T21:46:41.084Z,11.77
2022-09-13T21:49:12.844Z,13.27
2022-09-13T21:51:47.015Z,15.20
2022-09-13T21:54:19.132Z,13.60
2022-09-13T21:56:54.138Z,10.25
2022-09-13T21:59:23.883Z,8.70
2022-09-13T22:01:54.434Z,8.25
2022-09-13T22:04:27.412Z,8.13
2022-09-13T22:06:55.787Z,8.20
2022-09-13T22:09:27.662Z,9.05
2022-09-13T22:11:55.850Z,8.05
2022-09-13T22:14:23.291Z,8.73
2022-09-13T22:16:53.051Z,8.15
2022-09-13T22:19:26.545Z,8.43
2022-09-13T22:21:59.539Z,7.72
2022-09-13T22:24:32.315Z,6.85
2022-09-13T22:27:00.270Z,8.10
2022-09-13T22:29:28.632Z,7.13
2022-09-13T22:31:55.995Z,8.00
2022-09-13T22:34:25.966Z,8.25
2022-09-13T22:36:56.328Z,7.88
2022-09-13T22:39:24.040Z,8.30
2022-09-13T22:41:51.706Z,8.13
2022-09-13T22:44:18.984Z,8.57
2022-09-13T22:46:47.615Z,8.20
2022-09-13T22:49:19.653Z,8.60
2022-09-13T22:51:48.951Z,8.45
2022-09-13T22:54:19.412Z,9.05
2022-09-13T22:56:47.008Z,8.18
2022-09-13T22:59:21.644Z,8.07
2022-09-13T23:01:49.334Z,7.80
2022-09-13T23:04:17.633Z,7.72
2022-09-13T23:06:47.839Z,7.47
2022-09-13T23:09:18.702Z,7.38
2022-09-13T23:11:46.449Z,7.55
2022-09-13T23:14:17.532Z,8.02
2022-09-13T23:16:50.508Z,7.18
2022-09-13T23:19:22.204Z,7.43
2022-09-13T23:21:49.547Z,6.53
2022-09-13T23:24:18.984Z,6.85
2022-09-13T23:26:47.481Z,7.03
2022-09-13T23:29:20.155Z,6.97
2022-09-13T23:31:49.018Z,7.15
2022-09-13T23:34:17.849Z,6.95
2022-09-13T23:36:46.534Z,7.57
2022-09-13T23:39:20.058Z,7.00
2022-09-13T23:41:51.072Z,7.45
2022-09-13T23:44:19.492Z,7.10
2022-09-13T23:46:46.612Z,7.38
2022-09-13T23:49:14.070Z,6.90
2022-09-13T23:51:41.700Z,7.20
2022-09-13T23:54:10.280Z,7.28
2022-09-13T23:56:37.466Z,6.65
2022-09-13T23:59:06.412Z,6.43
